OIKQ  Dayrestan Airport

Add Bookmark

Iran

Status
Operational
Latitude Longitude
26° 45' 16" N 55° 54' 8" E
26.754601 55.902401
Local (DST + 5) UTC (GMT + 4)
Nov 23, 2014 11:10 Nov 23, 2014 19:40
Sunrise-Sunset Local UTC
Begin Civil Twilight 05:45 02:15
Sunrise 06:10 02:40
Sunset 04:54 13:24
End Civil Twilight 05:19 13:49

Current Weather

METAR Observed MVFR
OIKQ 231800Z 23014KT 5000 BR FEW025 26/22 Q1011 Sun, Nov 23, 2014 @ 18:00 UTC
(1 Hour, 40 Minutes ago)
Marginal Visual Flight Rules
Wind Visibility Clouds Conditions
230° at 14 knots (26 kph) 5000 meters
  • Few at 2,500' AGL
  • Mist
Temperatures Readings Precipitation
Current Temp 26°C (79°F)
Dewpoint 22°C (72°F)
Humidity 79%
Altimeter 29.85"Hg
Sea Level Pressure 1011mb
Field Elevation 39.37'
None Recorded

Additional weather within a 92.6km radius of OIKQ

Map ICAO Location
OIKB 69.8km N (042°)

24 Hour Weather History

Loading
-

24 Hour Weather Graphs

Loading
-

CheckWX.com is intended as a tool to help pilots better visualize weather data. It is not intended as a substitute for an official weather briefing obtained from a Flight Service Station. CheckWX.com does not meet the FAA requirements for an official pre-flight weather briefing. Therefore, it's important that pilots still call and obtain an official FSS pre-flight weather briefing.